Time;durP1;ratioP1;P1;durP2;ratioP2;P2;SDS_P1;SDS_P2;PMS_P1;PMS_P2;Temp;Humidity;BMP_temperature;BMP_pressure;BME280_temperature;BME280_humidity;BME280_pressure;Samples;Min_cycle;Max_cycle;Signal;HPM_P1;HPM_P2
2021/05/25 00:00:33;;;;;;;18.13;17.17;;;;;;;;;;4993929;28;20447;-86
2021/05/25 00:03:02;;;;;;;16.93;16.13;;;;;;;;;;4994678;28;20446;-85
2021/05/25 00:05:30;;;;;;;17.40;16.60;;;;;;;;;;4995474;28;20807;-85
2021/05/25 00:07:58;;;;;;;17.23;16.43;;;;;;;;;;4995269;28;20487;-86
2021/05/25 00:10:26;;;;;;;17.17;16.37;;;;;;;;;;4995357;28;20407;-85
2021/05/25 00:12:53;;;;;;;16.80;16.00;;;;;;;;;;4995161;28;20481;-85
2021/05/25 00:15:21;;;;;;;18.10;17.20;;;;;;;;;;4994675;28;20450;-85
2021/05/25 00:17:48;;;;;;;17.87;17.00;;;;;;;;;;4994727;28;20498;-85
2021/05/25 00:20:16;;;;;;;18.00;16.90;;;;;;;;;;4995120;28;20467;-86
2021/05/25 00:22:43;;;;;;;18.00;17.20;;;;;;;;;;4994706;28;20424;-86
2021/05/25 00:25:12;;;;;;;17.83;16.87;;;;;;;;;;4994972;28;20842;-85
2021/05/25 00:27:39;;;;;;;17.30;16.50;;;;;;;;;;4994946;28;20478;-85
2021/05/25 00:30:08;;;;;;;17.60;16.43;;;;;;;;;;4993906;28;20495;-86
2021/05/25 00:32:35;;;;;;;17.20;16.30;;;;;;;;;;4994759;28;20471;-86
2021/05/25 00:35:02;;;;;;;17.80;16.80;;;;;;;;;;4994878;28;20451;-86
2021/05/25 00:37:29;;;;;;;17.37;16.50;;;;;;;;;;4994613;28;20811;-86
2021/05/25 00:39:55;;;;;;;18.27;17.37;;;;;;;;;;4994909;28;20434;-85
2021/05/25 00:42:23;;;;;;;17.23;16.43;;;;;;;;;;4994726;28;20456;-85
2021/05/25 00:44:51;;;;;;;18.60;17.10;;;;;;;;;;4994512;28;20441;-85
2021/05/25 00:47:27;;;;;;;17.33;16.53;;;;;;;;;;4998593;28;20834;-85
2021/05/25 00:49:55;;;;;;;17.23;16.33;;;;;;;;;;5014326;28;20403;-86
2021/05/25 00:52:22;;;;;;;17.27;16.37;;;;;;;;;;5014911;28;20545;-85
2021/05/25 00:54:49;;;;;;;17.33;16.53;;;;;;;;;;5013979;28;20441;-86
2021/05/25 00:57:16;;;;;;;17.70;16.80;;;;;;;;;;5014238;28;20471;-85
2021/05/25 00:59:43;;;;;;;18.47;17.20;;;;;;;;;;5014226;28;20483;-86
2021/05/25 01:02:11;;;;;;;17.33;16.53;;;;;;;;;;4996908;28;20444;-86
2021/05/25 01:04:38;;;;;;;17.97;17.07;;;;;;;;;;5014275;28;20418;-86
2021/05/25 01:07:04;;;;;;;17.77;16.80;;;;;;;;;;5013686;28;20496;-86
2021/05/25 01:09:33;;;;;;;17.63;16.60;;;;;;;;;;5014217;28;20449;-86
2021/05/25 01:12:02;;;;;;;18.63;17.43;;;;;;;;;;5013938;28;20480;-86
2021/05/25 01:14:37;;;;;;;17.43;16.63;;;;;;;;;;5000262;28;20465;-85
2021/05/25 01:17:04;;;;;;;18.17;17.23;;;;;;;;;;5017946;28;20422;-87
2021/05/25 01:19:31;;;;;;;17.77;16.80;;;;;;;;;;5017919;28;20402;-87
2021/05/25 01:21:59;;;;;;;18.03;17.13;;;;;;;;;;5017711;28;20419;-87
2021/05/25 01:24:30;;;;;;;17.90;16.90;;;;;;;;;;5017787;28;20514;-87
2021/05/25 01:27:00;;;;;;;17.80;16.90;;;;;;;;;;5017563;28;20798;-87
2021/05/25 01:29:27;;;;;;;17.80;16.80;;;;;;;;;;5000390;28;20419;-88
2021/05/25 01:31:54;;;;;;;17.90;16.90;;;;;;;;;;5017248;28;21028;-87
2021/05/25 01:34:21;;;;;;;17.83;16.93;;;;;;;;;;5017953;28;20832;-87
2021/05/25 01:36:48;;;;;;;17.60;16.70;;;;;;;;;;5017418;28;20480;-87
2021/05/25 01:39:16;;;;;;;17.63;16.73;;;;;;;;;;5017314;28;20445;-87
2021/05/25 01:41:43;;;;;;;17.80;16.80;;;;;;;;;;5017581;28;20402;-87
2021/05/25 01:44:11;;;;;;;17.27;16.47;;;;;;;;;;5017060;28;20466;-87
2021/05/25 01:46:44;;;;;;;17.50;16.67;;;;;;;;;;5000011;28;20826;-87
2021/05/25 01:49:11;;;;;;;17.43;16.53;;;;;;;;;;5016862;28;20446;-87
2021/05/25 01:51:38;;;;;;;18.40;17.37;;;;;;;;;;4999864;28;20447;-86
2021/05/25 01:54:05;;;;;;;17.20;16.40;;;;;;;;;;5017370;28;20426;-87
2021/05/25 01:56:33;;;;;;;17.50;16.50;;;;;;;;;;5017119;28;20431;-87
2021/05/25 01:59:00;;;;;;;17.67;16.77;;;;;;;;;;5017127;28;20490;-87
2021/05/25 02:01:27;;;;;;;17.67;16.57;;;;;;;;;;5017671;28;20918;-87
2021/05/25 02:03:53;;;;;;;17.63;16.67;;;;;;;;;;5017065;28;20419;-87
2021/05/25 02:06:20;;;;;;;17.40;16.60;;;;;;;;;;5017090;28;20444;-87
2021/05/25 02:08:47;;;;;;;18.00;17.07;;;;;;;;;;5017074;28;20433;-87
2021/05/25 02:11:14;;;;;;;18.50;17.40;;;;;;;;;;5016490;28;20434;-88
2021/05/25 02:13:42;;;;;;;17.50;16.60;;;;;;;;;;5017069;28;20446;-88
2021/05/25 02:16:10;;;;;;;17.60;16.70;;;;;;;;;;5016681;28;20425;-87
2021/05/25 02:18:37;;;;;;;17.23;16.40;;;;;;;;;;5016675;28;20841;-87
2021/05/25 02:21:06;;;;;;;17.90;17.00;;;;;;;;;;5016535;28;20888;-87
2021/05/25 02:23:33;;;;;;;18.23;16.87;;;;;;;;;;5016080;28;20458;-87
2021/05/25 02:26:00;;;;;;;17.57;16.77;;;;;;;;;;5015748;28;20418;-87
2021/05/25 02:28:27;;;;;;;17.60;16.70;;;;;;;;;;4999240;28;20782;-87
2021/05/25 02:30:55;;;;;;;18.00;17.07;;;;;;;;;;5016729;28;20473;-87
2021/05/25 02:33:23;;;;;;;17.23;16.43;;;;;;;;;;4998912;28;20514;-87
2021/05/25 02:35:51;;;;;;;17.23;16.43;;;;;;;;;;5016255;28;20423;-87
2021/05/25 02:38:18;;;;;;;18.40;17.40;;;;;;;;;;5016580;28;20425;-87
2021/05/25 02:40:46;;;;;;;17.93;16.93;;;;;;;;;;5016294;28;20471;-87
2021/05/25 02:43:13;;;;;;;17.40;16.60;;;;;;;;;;5016157;28;20464;-87
2021/05/25 02:45:40;;;;;;;18.63;17.50;;;;;;;;;;5016000;28;20415;-86
2021/05/25 02:48:08;;;;;;;18.47;17.50;;;;;;;;;;4995295;28;20459;-87
2021/05/25 02:50:35;;;;;;;17.93;16.73;;;;;;;;;;4996667;28;20511;-87
2021/05/25 02:53:02;;;;;;;18.13;17.07;;;;;;;;;;4996560;28;20465;-87
2021/05/25 02:55:31;;;;;;;17.27;16.47;;;;;;;;;;4996619;28;20443;-87
2021/05/25 02:57:58;;;;;;;18.17;17.17;;;;;;;;;;4996691;28;20441;-87
2021/05/25 03:00:26;;;;;;;17.60;16.60;;;;;;;;;;4996597;28;20459;-87
2021/05/25 03:02:53;;;;;;;18.37;17.47;;;;;;;;;;4995234;28;20989;-86
2021/05/25 03:05:23;;;;;;;17.00;16.20;;;;;;;;;;4996377;28;20423;-87
2021/05/25 03:07:50;;;;;;;17.53;16.73;;;;;;;;;;4996128;28;20799;-87
2021/05/25 03:10:18;;;;;;;17.20;16.40;;;;;;;;;;4995910;28;20424;-87
2021/05/25 03:12:45;;;;;;;17.60;16.70;;;;;;;;;;4995629;28;20481;-88
2021/05/25 03:15:14;;;;;;;17.90;17.10;;;;;;;;;;4996462;28;20925;-87
2021/05/25 03:17:41;;;;;;;18.77;17.30;;;;;;;;;;4996307;28;20780;-87
2021/05/25 03:20:08;;;;;;;19.83;18.40;;;;;;;;;;4995740;28;20800;-86
2021/05/25 03:22:36;;;;;;;17.23;16.43;;;;;;;;;;4995154;28;20415;-87
2021/05/25 03:25:04;;;;;;;18.03;17.03;;;;;;;;;;4996268;28;20422;-87
2021/05/25 03:27:30;;;;;;;17.80;16.70;;;;;;;;;;4996085;28;20456;-86
2021/05/25 03:29:57;;;;;;;18.17;17.17;;;;;;;;;;4996083;28;20878;-86
2021/05/25 03:32:24;;;;;;;17.20;16.40;;;;;;;;;;4995784;28;20477;-87
2021/05/25 03:34:51;;;;;;;16.80;16.00;;;;;;;;;;4996026;28;20812;-87
2021/05/25 03:37:18;;;;;;;17.43;16.50;;;;;;;;;;4995190;28;20453;-88
2021/05/25 03:39:46;;;;;;;17.67;16.87;;;;;;;;;;4995839;28;20450;-87
2021/05/25 03:42:13;;;;;;;18.47;17.57;;;;;;;;;;4995917;28;20415;-87
2021/05/25 03:44:40;;;;;;;17.83;16.83;;;;;;;;;;4995520;28;20473;-87
2021/05/25 03:47:06;;;;;;;18.40;17.30;;;;;;;;;;4995764;28;20437;-88
2021/05/25 03:49:33;;;;;;;17.53;16.63;;;;;;;;;;5015155;28;20800;-87
2021/05/25 03:52:00;;;;;;;18.53;17.13;;;;;;;;;;5015076;28;20450;-89
2021/05/25 03:54:31;;;;;;;17.80;16.90;;;;;;;;;;5015315;28;20403;-90
2021/05/25 03:57:06;;;;;;;17.90;17.00;;;;;;;;;;5014771;28;20490;-90
2021/05/25 03:59:33;;;;;;;18.17;17.20;;;;;;;;;;4982515;28;20441;-90
2021/05/25 04:02:00;;;;;;;18.10;17.20;;;;;;;;;;5014689;28;20440;-89
2021/05/25 04:04:27;;;;;;;18.47;17.47;;;;;;;;;;5015061;28;20475;-90
2021/05/25 04:06:54;;;;;;;18.53;17.53;;;;;;;;;;5014803;28;20451;-89
2021/05/25 04:09:21;;;;;;;17.70;16.80;;;;;;;;;;4997446;28;20452;-90
2021/05/25 04:11:47;;;;;;;18.00;17.10;;;;;;;;;;5015026;28;20486;-89
2021/05/25 04:14:15;;;;;;;17.90;17.00;;;;;;;;;;5014548;28;20511;-90
2021/05/25 04:16:42;;;;;;;18.00;16.90;;;;;;;;;;4997453;28;20621;-90
2021/05/25 04:19:09;;;;;;;18.07;17.03;;;;;;;;;;5015043;28;20409;-89
2021/05/25 04:21:36;;;;;;;18.10;17.10;;;;;;;;;;5014807;28;20447;-90
2021/05/25 04:24:03;;;;;;;18.67;17.57;;;;;;;;;;4997357;28;20452;-89
2021/05/25 04:26:30;;;;;;;18.97;17.70;;;;;;;;;;5014800;28;20427;-90
2021/05/25 04:28:57;;;;;;;18.10;17.10;;;;;;;;;;5014849;28;20969;-89
2021/05/25 04:31:25;;;;;;;17.87;17.03;;;;;;;;;;4997247;28;20794;-89
2021/05/25 04:33:52;;;;;;;19.57;18.33;;;;;;;;;;4996928;28;20463;-90
2021/05/25 04:36:19;;;;;;;18.37;17.37;;;;;;;;;;5014615;28;20440;-89
2021/05/25 04:38:46;;;;;;;19.17;18.17;;;;;;;;;;5014224;28;20484;-89
2021/05/25 04:41:13;;;;;;;18.83;17.60;;;;;;;;;;5014351;28;20434;-90
2021/05/25 04:43:40;;;;;;;19.37;18.00;;;;;;;;;;5014317;28;20506;-91
2021/05/25 04:46:07;;;;;;;20.83;19.43;;;;;;;;;;5014267;28;20434;-90
2021/05/25 04:48:35;;;;;;;19.30;18.10;;;;;;;;;;5016842;28;20488;-89
2021/05/25 04:51:01;;;;;;;18.93;17.93;;;;;;;;;;5018588;28;20407;-88
2021/05/25 04:53:28;;;;;;;19.00;18.00;;;;;;;;;;5001064;28;20462;-89
2021/05/25 04:55:55;;;;;;;18.77;17.77;;;;;;;;;;5018450;28;20422;-88
2021/05/25 04:58:22;;;;;;;19.30;18.17;;;;;;;;;;5018121;28;20444;-89
2021/05/25 05:00:49;;;;;;;18.10;17.20;;;;;;;;;;5018159;28;20434;-88
2021/05/25 05:03:16;;;;;;;19.07;17.80;;;;;;;;;;5018245;28;20422;-88
2021/05/25 05:05:44;;;;;;;19.97;18.57;;;;;;;;;;5018229;28;20861;-88
2021/05/25 05:08:10;;;;;;;20.50;19.30;;;;;;;;;;5017793;28;20493;-88
2021/05/25 05:10:37;;;;;;;19.10;17.70;;;;;;;;;;5018428;28;20430;-89
2021/05/25 05:13:09;;;;;;;18.80;17.60;;;;;;;;;;5000614;28;20468;-88
2021/05/25 05:15:36;;;;;;;19.37;18.20;;;;;;;;;;5018074;28;20528;-88
2021/05/25 05:18:03;;;;;;;20.00;19.00;;;;;;;;;;5018052;28;20528;-87
2021/05/25 05:20:30;;;;;;;18.90;17.87;;;;;;;;;;5017986;28;20435;-86
2021/05/25 05:22:58;;;;;;;18.80;17.90;;;;;;;;;;5018044;28;20451;-90
2021/05/25 05:25:25;;;;;;;19.67;18.57;;;;;;;;;;5017934;28;20414;-87
2021/05/25 05:27:52;;;;;;;19.03;17.80;;;;;;;;;;5017541;28;20443;-86
2021/05/25 05:30:19;;;;;;;19.53;18.43;;;;;;;;;;5017910;28;20406;-86
2021/05/25 05:32:46;;;;;;;18.90;17.90;;;;;;;;;;5017755;28;20457;-87
2021/05/25 05:35:13;;;;;;;19.00;18.00;;;;;;;;;;5017341;28;20443;-87
2021/05/25 05:37:39;;;;;;;18.87;17.77;;;;;;;;;;5017510;28;20984;-87
2021/05/25 05:40:08;;;;;;;18.80;17.87;;;;;;;;;;5017394;28;20440;-87
2021/05/25 05:42:35;;;;;;;18.63;17.63;;;;;;;;;;5017550;28;20432;-87
2021/05/25 05:45:02;;;;;;;19.93;19.03;;;;;;;;;;5017664;28;20468;-87
2021/05/25 05:47:29;;;;;;;19.63;18.53;;;;;;;;;;5017405;28;20480;-89
2021/05/25 05:49:56;;;;;;;19.50;18.40;;;;;;;;;;5017169;28;20444;-90
2021/05/25 05:52:23;;;;;;;19.30;18.00;;;;;;;;;;5017452;28;20564;-89
2021/05/25 05:54:50;;;;;;;18.73;17.83;;;;;;;;;;5000289;28;20452;-91
2021/05/25 05:57:19;;;;;;;18.73;17.83;;;;;;;;;;5017263;28;20452;-90
2021/05/25 05:59:46;;;;;;;19.30;18.30;;;;;;;;;;5015800;28;20566;-90
2021/05/25 06:02:12;;;;;;;18.53;17.53;;;;;;;;;;5016571;28;20514;-92
2021/05/25 06:04:39;;;;;;;18.57;17.67;;;;;;;;;;5017163;28;20414;-90
2021/05/25 06:07:06;;;;;;;18.97;18.07;;;;;;;;;;5017309;28;20420;-90
2021/05/25 06:09:33;;;;;;;19.53;18.37;;;;;;;;;;5016795;28;20425;-90
2021/05/25 06:12:00;;;;;;;19.67;18.57;;;;;;;;;;5016655;28;20465;-90
2021/05/25 06:14:28;;;;;;;19.00;17.90;;;;;;;;;;5016753;28;20463;-90
2021/05/25 06:16:55;;;;;;;18.87;17.97;;;;;;;;;;5017444;28;20758;-89
2021/05/25 06:19:22;;;;;;;19.13;18.23;;;;;;;;;;5016979;28;20437;-88
2021/05/25 06:21:49;;;;;;;18.90;18.00;;;;;;;;;;4999471;28;20967;-89
2021/05/25 06:24:16;;;;;;;19.47;18.47;;;;;;;;;;5016430;28;20444;-91
2021/05/25 06:26:43;;;;;;;19.33;18.17;;;;;;;;;;5016733;28;20447;-91
2021/05/25 06:29:10;;;;;;;19.23;18.23;;;;;;;;;;5016505;28;20473;-90
2021/05/25 06:31:38;;;;;;;19.20;17.90;;;;;;;;;;5016221;28;20500;-91
2021/05/25 06:34:05;;;;;;;19.47;18.37;;;;;;;;;;5016593;28;20415;-90
2021/05/25 06:36:32;;;;;;;19.23;18.13;;;;;;;;;;5016371;28;20901;-90
2021/05/25 06:38:59;;;;;;;19.50;18.40;;;;;;;;;;5016255;28;20415;-88
2021/05/25 06:41:26;;;;;;;19.00;18.00;;;;;;;;;;5016475;28;20414;-89
2021/05/25 06:43:53;;;;;;;19.50;18.50;;;;;;;;;;5016496;28;20423;-89
2021/05/25 06:46:20;;;;;;;19.30;18.30;;;;;;;;;;5016187;28;20406;-88
2021/05/25 06:48:48;;;;;;;18.73;17.80;;;;;;;;;;4998645;28;20979;-90
2021/05/25 06:51:15;;;;;;;19.17;18.00;;;;;;;;;;5015972;28;20429;-88
2021/05/25 06:53:42;;;;;;;19.27;18.27;;;;;;;;;;5016161;28;20467;-88
2021/05/25 06:56:09;;;;;;;18.93;17.70;;;;;;;;;;5016033;28;20422;-88
2021/05/25 06:58:36;;;;;;;18.97;17.90;;;;;;;;;;4998802;28;20472;-88
2021/05/25 07:01:03;;;;;;;19.23;18.23;;;;;;;;;;5016060;28;20460;-89
2021/05/25 07:03:29;;;;;;;18.87;17.87;;;;;;;;;;5016101;28;20421;-88
2021/05/25 07:05:57;;;;;;;18.70;17.70;;;;;;;;;;5016100;28;20429;-89
2021/05/25 07:08:24;;;;;;;19.03;18.03;;;;;;;;;;5015784;28;20419;-80
2021/05/25 07:10:51;;;;;;;18.83;17.83;;;;;;;;;;5014888;28;20947;-80
2021/05/25 07:13:18;;;;;;;18.73;17.80;;;;;;;;;;5014898;28;20988;-81
2021/05/25 07:15:45;;;;;;;19.70;18.60;;;;;;;;;;5015168;28;20456;-80
2021/05/25 07:18:16;;;;;;;19.33;18.33;;;;;;;;;;5014557;28;20817;-80
2021/05/25 07:20:43;;;;;;;19.37;18.37;;;;;;;;;;5014880;28;20450;-80
2021/05/25 07:23:11;;;;;;;19.20;18.20;;;;;;;;;;5015219;28;20440;-80
2021/05/25 07:25:38;;;;;;;18.70;17.70;;;;;;;;;;5015075;28;20455;-79
2021/05/25 07:28:05;;;;;;;19.10;18.10;;;;;;;;;;5015090;28;20433;-79
2021/05/25 07:30:32;;;;;;;18.50;17.60;;;;;;;;;;5014981;28;20501;-80
2021/05/25 07:32:59;;;;;;;18.70;17.80;;;;;;;;;;5014344;28;20474;-79
2021/05/25 07:35:26;;;;;;;19.07;18.07;;;;;;;;;;5015111;28;20415;-78
2021/05/25 07:37:53;;;;;;;18.97;18.07;;;;;;;;;;5014532;28;20423;-79
2021/05/25 07:40:21;;;;;;;19.23;18.17;;;;;;;;;;5014824;28;20766;-80
2021/05/25 07:42:48;;;;;;;18.40;17.50;;;;;;;;;;4996390;28;20480;-83
2021/05/25 07:45:16;;;;;;;19.37;18.27;;;;;;;;;;4997582;28;20444;-81
2021/05/25 07:47:43;;;;;;;19.00;18.00;;;;;;;;;;5014611;28;20458;-80
2021/05/25 07:50:14;;;;;;;18.50;17.60;;;;;;;;;;5014527;28;20459;-80
2021/05/25 07:52:41;;;;;;;18.60;17.70;;;;;;;;;;5014365;28;20458;-79
2021/05/25 07:55:09;;;;;;;18.80;17.70;;;;;;;;;;5014539;28;20415;-82
2021/05/25 07:57:38;;;;;;;19.87;18.00;;;;;;;;;;5014460;28;20419;-79
2021/05/25 08:00:06;;;;;;;19.67;18.67;;;;;;;;;;5014043;28;20997;-80
2021/05/25 08:02:32;;;;;;;19.63;18.40;;;;;;;;;;5014314;28;20437;-79
2021/05/25 08:04:59;;;;;;;18.77;17.77;;;;;;;;;;5014393;28;20444;-80
2021/05/25 08:07:26;;;;;;;19.77;18.77;;;;;;;;;;5014050;28;20415;-80
2021/05/25 08:09:53;;;;;;;19.40;18.30;;;;;;;;;;5014087;28;20808;-80
2021/05/25 08:12:20;;;;;;;19.30;18.30;;;;;;;;;;5013902;28;20530;-80
2021/05/25 08:14:48;;;;;;;19.70;18.70;;;;;;;;;;5014153;28;20491;-80
2021/05/25 08:17:20;;;;;;;19.80;18.70;;;;;;;;;;5014000;28;20415;-80
2021/05/25 08:19:48;;;;;;;20.53;19.43;;;;;;;;;;5014198;28;20468;-81
2021/05/25 08:22:15;;;;;;;19.93;18.83;;;;;;;;;;5013431;28;20507;-80
2021/05/25 08:24:42;;;;;;;20.43;19.40;;;;;;;;;;5014035;28;20436;-78
2021/05/25 08:27:09;;;;;;;19.93;18.83;;;;;;;;;;5014165;28;20910;-79
2021/05/25 08:29:35;;;;;;;20.33;19.23;;;;;;;;;;5013868;28;20881;-80
2021/05/25 08:32:04;;;;;;;20.63;19.43;;;;;;;;;;4996372;28;20448;-79
2021/05/25 08:34:30;;;;;;;19.60;18.50;;;;;;;;;;5013965;28;20408;-80
2021/05/25 08:36:57;;;;;;;19.80;18.70;;;;;;;;;;5013927;28;20403;-82
2021/05/25 08:39:24;;;;;;;20.13;19.10;;;;;;;;;;5013973;28;20415;-80
2021/05/25 08:41:53;;;;;;;19.90;18.80;;;;;;;;;;5013902;28;20440;-80
2021/05/25 08:44:20;;;;;;;19.97;18.87;;;;;;;;;;5013563;28;20469;-79
2021/05/25 08:46:47;;;;;;;20.60;19.50;;;;;;;;;;5013827;28;20449;-81
2021/05/25 08:49:15;;;;;;;19.67;18.60;;;;;;;;;;4992782;28;20528;-80
2021/05/25 08:51:42;;;;;;;20.40;19.30;;;;;;;;;;4994810;28;20404;-80
2021/05/25 08:54:10;;;;;;;19.87;18.77;;;;;;;;;;4994358;28;20459;-79
2021/05/25 08:56:37;;;;;;;20.33;19.03;;;;;;;;;;4993004;28;20449;-79
2021/05/25 08:59:04;;;;;;;19.40;18.30;;;;;;;;;;4994082;28;20477;-79
2021/05/25 09:01:31;;;;;;;19.57;18.47;;;;;;;;;;4994555;28;20408;-80
2021/05/25 09:03:59;;;;;;;19.70;18.60;;;;;;;;;;4993981;28;20780;-79
2021/05/25 09:06:41;;;;;;;19.80;18.70;;;;;;;;;;4994536;28;20456;-79
2021/05/25 09:09:10;;;;;;;19.60;18.50;;;;;;;;;;4993833;28;20447;-80
2021/05/25 09:11:52;;;;;;;19.90;18.80;;;;;;;;;;4993856;28;20452;-80
2021/05/25 09:14:20;;;;;;;19.83;18.73;;;;;;;;;;4994013;28;20463;-79
2021/05/25 09:16:46;;;;;;;20.00;18.90;;;;;;;;;;4993964;28;21022;-80
2021/05/25 09:19:14;;;;;;;19.67;18.67;;;;;;;;;;4994004;28;20445;-80
2021/05/25 09:21:41;;;;;;;18.93;17.93;;;;;;;;;;4994661;28;20437;-80
2021/05/25 09:24:09;;;;;;;19.20;18.20;;;;;;;;;;4993686;28;20968;-79
2021/05/25 09:26:40;;;;;;;18.53;17.53;;;;;;;;;;4993628;28;20894;-80
2021/05/25 09:29:07;;;;;;;19.27;18.27;;;;;;;;;;4993968;28;20437;-80
2021/05/25 09:31:38;;;;;;;18.73;17.73;;;;;;;;;;4992239;28;20913;-79
2021/05/25 09:34:08;;;;;;;19.20;18.20;;;;;;;;;;4995127;28;20510;-79
2021/05/25 09:36:50;;;;;;;18.93;18.03;;;;;;;;;;4997437;28;20419;-79
2021/05/25 09:39:18;;;;;;;18.40;17.50;;;;;;;;;;4996800;28;20550;-78
2021/05/25 09:41:57;;;;;;;19.57;18.23;;;;;;;;;;4996361;28;20441;-79
2021/05/25 09:44:24;;;;;;;18.77;17.73;;;;;;;;;;4996206;28;20475;-79
2021/05/25 09:46:51;;;;;;;18.00;17.10;;;;;;;;;;4997055;28;20877;-79
2021/05/25 09:49:20;;;;;;;18.77;17.73;;;;;;;;;;5014846;28;20463;-79
2021/05/25 09:51:47;;;;;;;18.90;18.00;;;;;;;;;;5016794;28;20448;-79
2021/05/25 09:54:22;;;;;;;19.03;18.00;;;;;;;;;;5016683;28;20488;-79
2021/05/25 09:56:59;;;;;;;18.53;17.60;;;;;;;;;;5016744;28;20430;-79
2021/05/25 09:59:29;;;;;;;19.90;18.90;;;;;;;;;;5016711;28;20863;-79
2021/05/25 10:01:56;;;;;;;19.10;18.10;;;;;;;;;;5016216;28;20447;-79
2021/05/25 10:04:23;;;;;;;18.93;18.03;;;;;;;;;;5016460;28;20607;-79
2021/05/25 10:06:51;;;;;;;18.90;18.00;;;;;;;;;;4982776;28;20455;-79
2021/05/25 10:09:21;;;;;;;19.33;18.33;;;;;;;;;;5016438;28;20427;-79
2021/05/25 10:11:50;;;;;;;19.37;18.37;;;;;;;;;;5016477;28;20419;-79
2021/05/25 10:14:19;;;;;;;19.00;18.10;;;;;;;;;;5015988;28;20967;-79
2021/05/25 10:16:48;;;;;;;18.57;17.57;;;;;;;;;;5015830;28;20452;-79
2021/05/25 10:21:57;;;;;;;18.30;17.40;;;;;;;;;;5014283;28;20441;-79
2021/05/25 10:24:23;;;;;;;18.00;17.10;;;;;;;;;;5016154;28;20456;-79
2021/05/25 10:26:52;;;;;;;18.50;17.50;;;;;;;;;;5016187;28;20897;-79
2021/05/25 10:29:19;;;;;;;18.70;17.70;;;;;;;;;;5015874;28;20908;-79
2021/05/25 10:31:49;;;;;;;18.33;17.33;;;;;;;;;;5015608;28;20415;-79
2021/05/25 10:34:20;;;;;;;18.30;17.40;;;;;;;;;;4998133;28;20496;-78
2021/05/25 10:36:47;;;;;;;19.13;18.13;;;;;;;;;;5016084;28;20403;-78
2021/05/25 10:39:31;;;;;;;19.33;18.33;;;;;;;;;;5015680;28;20436;-79
2021/05/25 10:42:17;;;;;;;19.33;18.23;;;;;;;;;;4998242;28;20444;-79
2021/05/25 10:44:48;;;;;;;19.40;18.30;;;;;;;;;;5015479;28;20427;-79
2021/05/25 10:47:21;;;;;;;19.07;18.07;;;;;;;;;;5014874;28;20456;-79
2021/05/25 10:49:54;;;;;;;19.93;18.93;;;;;;;;;;5015820;28;20419;-78
2021/05/25 10:52:22;;;;;;;20.60;19.40;;;;;;;;;;5015369;28;20502;-78
2021/05/25 10:54:50;;;;;;;21.10;20.00;;;;;;;;;;4998049;28;20514;-79
2021/05/25 10:57:30;;;;;;;21.33;20.00;;;;;;;;;;5015571;28;20452;-78
2021/05/25 11:00:02;;;;;;;20.63;19.23;;;;;;;;;;5015287;28;20828;-78
2021/05/25 11:02:44;;;;;;;19.57;18.57;;;;;;;;;;5015392;28;20423;-78
2021/05/25 11:05:31;;;;;;;21.33;19.93;;;;;;;;;;5015823;28;20783;-78
2021/05/25 11:07:58;;;;;;;20.23;18.93;;;;;;;;;;5015511;28;20459;-79
2021/05/25 11:10:37;;;;;;;19.60;18.50;;;;;;;;;;5015418;28;20444;-79
2021/05/25 11:13:25;;;;;;;20.50;19.40;;;;;;;;;;5014465;28;20470;-79
2021/05/25 11:16:03;;;;;;;19.47;18.43;;;;;;;;;;5014949;28;20447;-81
2021/05/25 11:18:33;;;;;;;20.40;19.20;;;;;;;;;;5015191;28;20494;-80
2021/05/25 11:23:50;;;;;;;21.40;20.20;;;;;;;;;;5009720;28;20454;-81
2021/05/25 11:26:35;;;;;;;19.93;18.93;;;;;;;;;;5014886;28;20448;-82
2021/05/25 11:29:18;;;;;;;22.57;21.27;;;;;;;;;;5014882;28;20478;-81
2021/05/25 11:31:46;;;;;;;23.50;22.20;;;;;;;;;;5016281;28;20784;-83
2021/05/25 11:34:13;;;;;;;23.53;22.07;;;;;;;;;;5015065;28;20564;-82
2021/05/25 11:36:40;;;;;;;24.40;23.00;;;;;;;;;;5014743;28;20422;-81
2021/05/25 11:39:09;;;;;;;25.13;23.63;;;;;;;;;;5014557;28;20451;-79
2021/05/25 11:41:36;;;;;;;23.70;22.00;;;;;;;;;;5014465;28;20432;-81
2021/05/25 11:44:04;;;;;;;22.77;21.47;;;;;;;;;;5014719;28;20420;-78
2021/05/25 11:46:44;;;;;;;24.10;22.70;;;;;;;;;;4996987;28;20486;-82
2021/05/25 11:49:13;;;;;;;22.50;21.20;;;;;;;;;;4992709;28;20810;-83
2021/05/25 11:51:40;;;;;;;21.63;20.43;;;;;;;;;;4993951;28;20409;-80
2021/05/25 11:54:08;;;;;;;22.70;21.40;;;;;;;;;;4993632;28;20485;-79
2021/05/25 11:56:34;;;;;;;24.10;22.70;;;;;;;;;;4994179;28;20423;-79
2021/05/25 11:59:01;;;;;;;23.30;22.00;;;;;;;;;;4993730;28;20460;-79
2021/05/25 12:01:39;;;;;;;22.43;21.20;;;;;;;;;;4994116;28;20416;-79
2021/05/25 12:04:06;;;;;;;24.07;22.77;;;;;;;;;;4993534;28;20427;-79
2021/05/25 12:06:34;;;;;;;22.97;21.67;;;;;;;;;;4994034;28;20412;-79
2021/05/25 12:09:08;;;;;;;23.47;22.07;;;;;;;;;;4993929;28;20416;-78
2021/05/25 12:11:35;;;;;;;22.37;21.17;;;;;;;;;;4993709;28;20442;-79
2021/05/25 12:14:02;;;;;;;22.30;21.10;;;;;;;;;;4993850;28;20486;-79
2021/05/25 12:16:29;;;;;;;21.67;20.27;;;;;;;;;;4993684;28;20431;-79
2021/05/25 12:18:56;;;;;;;23.57;22.17;;;;;;;;;;4993267;28;20442;-81
2021/05/25 12:21:24;;;;;;;22.80;21.37;;;;;;;;;;4992538;28;20446;-79
2021/05/25 12:23:52;;;;;;;24.30;22.80;;;;;;;;;;4992746;28;20412;-79
2021/05/25 12:26:19;;;;;;;21.80;20.60;;;;;;;;;;4993240;28;20409;-79
2021/05/25 12:28:49;;;;;;;22.73;21.43;;;;;;;;;;4993200;28;20416;-80
2021/05/25 12:31:17;;;;;;;22.53;20.87;;;;;;;;;;4990625;28;20849;-80
2021/05/25 12:33:46;;;;;;;22.77;21.53;;;;;;;;;;4992736;28;20459;-79
2021/05/25 12:36:15;;;;;;;22.70;21.50;;;;;;;;;;4990177;28;20412;-79
2021/05/25 12:38:55;;;;;;;22.03;20.70;;;;;;;;;;4992529;28;20419;-78
2021/05/25 12:41:24;;;;;;;20.60;19.40;;;;;;;;;;4992157;28;20836;-78
2021/05/25 12:43:50;;;;;;;19.70;18.60;;;;;;;;;;4990303;28;20512;-85
2021/05/25 12:46:18;;;;;;;21.00;19.70;;;;;;;;;;4992442;28;20551;-78
2021/05/25 12:48:46;;;;;;;21.23;20.13;;;;;;;;;;4910243;28;2793312;-78
2021/05/25 12:51:14;;;;;;;20.37;19.37;;;;;;;;;;5013659;28;20221;-79
2021/05/25 12:53:50;;;;;;;20.43;19.43;;;;;;;;;;5013712;28;20518;-79
2021/05/25 12:56:20;;;;;;;20.50;19.40;;;;;;;;;;5013593;28;20889;-79
2021/05/25 12:58:48;;;;;;;19.60;18.60;;;;;;;;;;4996329;28;20450;-79
2021/05/25 13:01:20;;;;;;;19.40;18.30;;;;;;;;;;5013474;28;20411;-79
2021/05/25 13:03:47;;;;;;;20.20;19.17;;;;;;;;;;5013617;28;20897;-79
2021/05/25 13:06:17;;;;;;;19.60;18.60;;;;;;;;;;5013732;28;20480;-79
2021/05/25 13:08:48;;;;;;;20.03;19.03;;;;;;;;;;5014490;28;20415;-80
2021/05/25 13:11:15;;;;;;;20.67;19.50;;;;;;;;;;5017291;28;20454;-79
2021/05/25 13:13:45;;;;;;;20.50;19.40;;;;;;;;;;5017169;28;20461;-79
2021/05/25 13:16:19;;;;;;;20.90;19.70;;;;;;;;;;5017635;28;20454;-80
2021/05/25 13:18:47;;;;;;;19.47;18.53;;;;;;;;;;5017195;28;20450;-80
2021/05/25 13:21:16;;;;;;;19.73;18.63;;;;;;;;;;5017193;28;20486;-78
2021/05/25 13:23:50;;;;;;;19.43;18.43;;;;;;;;;;5017318;28;20431;-82
2021/05/25 13:26:30;;;;;;;18.90;17.90;;;;;;;;;;5016978;28;20913;-79
2021/05/25 13:29:00;;;;;;;18.70;17.80;;;;;;;;;;5016240;28;20436;-78
2021/05/25 13:31:28;;;;;;;19.10;18.10;;;;;;;;;;5016527;28;20430;-78
2021/05/25 13:33:55;;;;;;;20.20;19.00;;;;;;;;;;5016636;28;20473;-79
2021/05/25 13:36:26;;;;;;;20.03;19.03;;;;;;;;;;5016793;28;20419;-79
2021/05/25 13:38:54;;;;;;;19.73;18.43;;;;;;;;;;5017041;28;20528;-79
2021/05/25 13:41:22;;;;;;;19.20;18.20;;;;;;;;;;5016657;28;20968;-79
2021/05/25 13:43:52;;;;;;;18.50;17.60;;;;;;;;;;5016248;28;20458;-79
2021/05/25 13:46:20;;;;;;;20.13;18.70;;;;;;;;;;5016619;28;20468;-78
2021/05/25 13:48:48;;;;;;;19.30;18.30;;;;;;;;;;5016230;28;20461;-79
2021/05/25 13:51:15;;;;;;;19.47;18.40;;;;;;;;;;5016462;28;20553;-79
2021/05/25 13:53:43;;;;;;;21.60;20.30;;;;;;;;;;4999377;28;20457;-79
2021/05/25 13:56:13;;;;;;;21.80;20.60;;;;;;;;;;5016430;28;20415;-79
2021/05/25 13:58:41;;;;;;;24.37;22.23;;;;;;;;;;5016681;28;20478;-78
2021/05/25 14:01:24;;;;;;;21.97;20.63;;;;;;;;;;5016566;28;20442;-78
2021/05/25 14:03:52;;;;;;;22.10;20.60;;;;;;;;;;5016481;28;20531;-78
2021/05/25 14:06:20;;;;;;;21.50;20.10;;;;;;;;;;4999039;28;20431;-79
2021/05/25 14:08:48;;;;;;;20.73;19.53;;;;;;;;;;5016280;28;20418;-79
2021/05/25 14:11:15;;;;;;;20.60;19.40;;;;;;;;;;5016233;28;20510;-78
2021/05/25 14:13:42;;;;;;;20.47;19.27;;;;;;;;;;5015950;28;20462;-79
2021/05/25 14:16:09;;;;;;;20.40;19.30;;;;;;;;;;5016273;28;21046;-80
2021/05/25 14:18:36;;;;;;;19.67;18.57;;;;;;;;;;4998404;28;20423;-80
2021/05/25 14:21:04;;;;;;;20.23;19.23;;;;;;;;;;5014840;28;20427;-80
2021/05/25 14:23:31;;;;;;;20.33;19.23;;;;;;;;;;5015922;28;20793;-80
2021/05/25 14:25:59;;;;;;;19.93;18.73;;;;;;;;;;4998589;28;20522;-79
2021/05/25 14:28:26;;;;;;;19.70;18.60;;;;;;;;;;5015899;28;20407;-79